Time;durP1;ratioP1;P1;durP2;ratioP2;P2;SDS_P1;SDS_P2;PMS_P1;PMS_P2;Temp;Humidity;BMP_temperature;BMP_pressure;BME280_temperature;BME280_humidity;BME280_pressure;Samples;Min_cycle;Max_cycle;Signal;HPM_P1;HPM_P2
2023/04/21 03:53:17;;;;;;;13.73;8.20;;;2.90;99.90;;;;;;6208787;22;20223;-68
2023/04/21 03:55:47;;;;;;;11.20;7.50;;;2.80;99.90;;;;;;6215770;23;20276;-68
2023/04/21 03:58:14;;;;;;;11.00;7.72;;;2.80;99.90;;;;;;6215825;23;20161;-68
2023/04/21 04:00:41;;;;;;;11.48;8.10;;;2.80;99.90;;;;;;6215902;23;20208;-68
2023/04/21 04:03:07;;;;;;;8.50;7.18;;;2.80;99.90;;;;;;6217105;23;20193;-68
2023/04/21 04:05:35;;;;;;;9.52;6.47;;;2.80;99.90;;;;;;6217612;23;20204;-68
2023/04/21 04:08:02;;;;;;;18.83;9.93;;;2.80;99.90;;;;;;6217858;22;20207;-66
2023/04/21 04:10:30;;;;;;;16.48;9.15;;;2.70;99.90;;;;;;6217815;23;20177;-66
2023/04/21 04:12:57;;;;;;;13.05;8.52;;;2.80;99.90;;;;;;6217684;23;20180;-67
2023/04/21 04:15:24;;;;;;;19.85;10.90;;;2.80;99.90;;;;;;6217922;23;20207;-66
2023/04/21 04:17:50;;;;;;;16.90;9.93;;;2.70;99.90;;;;;;6217113;23;20533;-67
2023/04/21 04:20:17;;;;;;;18.20;9.35;;;2.70;99.90;;;;;;6217577;23;20196;-67
2023/04/21 04:22:44;;;;;;;17.58;9.55;;;2.70;99.90;;;;;;6217394;23;20196;-68
2023/04/21 04:25:11;;;;;;;18.13;9.60;;;2.70;99.90;;;;;;6217407;23;20200;-68
2023/04/21 04:27:40;;;;;;;17.13;10.05;;;2.60;99.90;;;;;;6217379;23;20197;-67
2023/04/21 04:30:08;;;;;;;18.15;9.52;;;2.60;99.90;;;;;;6217606;23;20182;-67
2023/04/21 04:32:36;;;;;;;13.35;8.45;;;2.60;99.90;;;;;;6217318;23;20259;-67
2023/04/21 04:35:04;;;;;;;14.38;8.68;;;2.60;99.90;;;;;;6218200;23;20172;-67
2023/04/21 04:37:33;;;;;;;12.18;7.80;;;2.60;99.90;;;;;;6217621;23;20221;-66
2023/04/21 04:39:59;;;;;;;11.77;7.65;;;2.60;99.90;;;;;;6217599;23;20509;-68
2023/04/21 04:42:26;;;;;;;12.57;7.30;;;2.60;99.90;;;;;;6217601;23;20180;-67
2023/04/21 04:44:56;;;;;;;11.93;7.43;;;2.50;99.90;;;;;;6217873;23;20189;-67
2023/04/21 04:47:22;;;;;;;11.50;7.45;;;2.50;99.90;;;;;;6217196;23;20266;-67
2023/04/21 04:49:49;;;;;;;12.27;7.63;;;2.50;99.90;;;;;;6217266;23;20172;-67
2023/04/21 04:52:16;;;;;;;11.95;7.65;;;2.50;99.90;;;;;;6217545;23;20180;-69
2023/04/21 04:54:42;;;;;;;12.57;7.38;;;2.50;99.90;;;;;;6217443;23;20192;-68
2023/04/21 04:57:09;;;;;;;13.70;7.40;;;2.60;99.90;;;;;;6217086;23;20692;-68
2023/04/21 04:59:36;;;;;;;11.00;6.28;;;2.60;99.90;;;;;;6217431;23;20176;-68
2023/04/21 05:02:04;;;;;;;13.23;7.00;;;2.60;99.90;;;;;;6216841;23;20177;-68
2023/04/21 05:04:31;;;;;;;13.65;8.05;;;2.60;99.90;;;;;;6217222;23;20223;-68
2023/04/21 05:06:57;;;;;;;13.23;8.10;;;2.60;99.90;;;;;;6217001;23;20217;-68
2023/04/21 10:51:49;;;;;;;2.10;2.00;;;13.00;99.90;;;;;;6201396;22;20200;-68
2023/04/21 10:54:17;;;;;;;2.70;2.50;;;13.00;99.90;;;;;;6216024;23;20575;-68
2023/04/21 10:56:44;;;;;;;2.78;2.65;;;13.10;99.90;;;;;;6216301;23;20173;-68
2023/04/21 10:59:11;;;;;;;2.67;2.58;;;13.00;99.90;;;;;;6216202;23;20172;-69
2023/04/21 11:01:40;;;;;;;2.33;2.22;;;12.90;99.90;;;;;;6216192;23;20203;-68
2023/04/21 11:04:07;;;;;;;2.63;2.53;;;12.90;99.90;;;;;;6216450;23;20172;-68
2023/04/21 11:06:33;;;;;;;2.53;2.42;;;12.90;99.90;;;;;;6216305;23;20196;-68
2023/04/21 11:09:02;;;;;;;2.72;2.50;;;12.90;99.90;;;;;;6217157;23;20180;-67
2023/04/21 11:11:30;;;;;;;2.83;2.63;;;13.00;99.90;;;;;;6215770;23;20220;-67
2023/04/21 11:14:00;;;;;;;2.38;2.28;;;13.10;99.90;;;;;;6218011;23;20165;-67
2023/04/21 11:16:27;;;;;;;2.20;2.20;;;13.10;99.90;;;;;;6221545;23;20634;-67
2023/04/21 11:18:56;;;;;;;1.88;1.88;;;13.10;99.90;;;;;;6222375;23;20176;-69
2023/04/21 11:21:24;;;;;;;2.47;2.22;;;13.20;99.90;;;;;;6222964;23;20279;-67
2023/04/21 11:23:53;;;;;;;2.70;2.60;;;13.30;99.90;;;;;;6221382;23;20218;-68
2023/04/21 11:26:32;;;;;;;2.50;2.40;;;13.30;99.90;;;;;;6221627;23;20272;-68
2023/04/21 11:29:01;;;;;;;2.30;2.10;;;13.30;99.90;;;;;;6221722;23;20167;-68
2023/04/21 11:31:29;;;;;;;2.10;2.00;;;13.50;99.90;;;;;;6221701;23;20271;-68
2023/04/21 11:33:57;;;;;;;1.70;1.70;;;13.50;99.90;;;;;;6221515;23;20234;-68
2023/04/21 11:36:23;;;;;;;1.63;1.60;;;13.60;99.90;;;;;;6220136;23;20223;-67
2023/04/21 11:38:50;;;;;;;1.85;1.83;;;13.80;99.90;;;;;;6218598;23;20177;-68
2023/04/21 11:41:21;;;;;;;2.70;1.70;;;13.80;99.90;;;;;;6219914;23;20199;-68
2023/04/21 11:43:50;;;;;;;1.73;1.67;;;13.80;99.90;;;;;;6219170;23;20161;-68
2023/04/21 11:46:22;;;;;;;1.30;1.30;;;13.80;99.90;;;;;;6218732;23;20215;-68
2023/04/21 11:48:58;;;;;;;1.15;1.15;;;13.90;99.90;;;;;;6219649;23;20161;-68
2023/04/21 11:51:26;;;;;;;1.30;1.30;;;14.00;99.90;;;;;;6217675;23;20586;-68
2023/04/21 11:53:53;;;;;;;2.97;1.13;;;14.10;99.90;;;;;;6218657;23;20216;-68
2023/04/21 11:56:21;;;;;;;1.42;1.33;;;14.20;99.90;;;;;;6215852;23;20168;-68
2023/04/21 11:58:50;;;;;;;1.05;1.05;;;14.20;99.90;;;;;;6215800;23;20207;-68
2023/04/21 12:01:18;;;;;;;0.80;0.80;;;14.30;99.90;;;;;;6215628;23;20224;-68
2023/04/21 12:03:51;;;;;;;2.25;1.15;;;14.40;99.90;;;;;;6215615;23;20180;-68
2023/04/21 12:06:21;;;;;;;0.90;0.90;;;14.50;99.90;;;;;;6215712;23;20177;-68
2023/04/21 12:08:47;;;;;;;0.88;0.88;;;14.50;99.90;;;;;;6215603;23;20192;-68
2023/04/21 12:11:16;;;;;;;0.77;0.77;;;14.60;99.90;;;;;;6215164;23;20743;-67
2023/04/21 12:13:44;;;;;;;0.90;0.90;;;14.60;99.90;;;;;;6215117;23;20510;-68
2023/04/21 12:16:13;;;;;;;1.80;0.85;;;14.70;99.90;;;;;;6215812;23;20244;-69
2023/04/21 12:18:39;;;;;;;0.88;0.85;;;14.80;99.90;;;;;;6215698;23;20173;-68
2023/04/21 12:21:06;;;;;;;0.73;0.73;;;14.90;99.90;;;;;;6215593;23;20172;-68
2023/04/21 12:23:33;;;;;;;0.90;0.90;;;15.00;99.90;;;;;;6216278;23;20208;-68
2023/04/21 12:26:00;;;;;;;1.67;0.80;;;15.10;99.90;;;;;;6216985;23;20522;-68
2023/04/21 12:28:26;;;;;;;0.70;0.70;;;15.10;99.90;;;;;;6217019;23;20636;-70
2023/04/21 12:30:53;;;;;;;0.50;0.50;;;15.20;95.70;;;;;;6217405;23;20184;-68
2023/04/21 12:33:21;;;;;;;0.60;0.60;;;15.30;93.40;;;;;;6217251;23;20638;-68
2023/04/21 12:35:48;;;;;;;0.55;0.55;;;15.40;94.10;;;;;;6217288;23;20176;-69
2023/04/21 12:38:15;;;;;;;0.63;0.63;;;15.60;97.80;;;;;;6217035;23;20181;-68
2023/04/21 12:40:41;;;;;;;0.60;0.60;;;15.70;92.50;;;;;;6217328;23;20212;-68
2023/04/21 12:43:08;;;;;;;0.60;0.60;;;15.90;91.40;;;;;;6217401;23;20197;-69
2023/04/21 12:45:35;;;;;;;0.60;0.60;;;16.00;92.20;;;;;;6217340;23;20200;-67
2023/04/21 12:48:03;;;;;;;1.65;0.50;;;16.20;91.90;;;;;;6216865;23;20235;-68
2023/04/21 12:50:31;;;;;;;0.60;0.60;;;16.40;92.30;;;;;;6217159;23;20212;-69
2023/04/21 12:52:59;;;;;;;0.40;0.40;;;16.70;86.40;;;;;;6216666;23;20677;-67
2023/04/21 12:55:26;;;;;;;0.55;0.50;;;17.00;78.10;;;;;;6217427;23;20184;-68
2023/04/21 12:57:53;;;;;;;0.63;0.63;;;17.30;70.10;;;;;;6218905;23;20223;-68
2023/04/21 13:00:20;;;;;;;1.05;1.05;;;17.70;68.00;;;;;;6222389;23;20204;-68
2023/04/21 13:02:48;;;;;;;0.70;0.70;;;17.90;65.50;;;;;;6220898;23;20188;-68
2023/04/21 13:05:14;;;;;;;0.60;0.60;;;18.20;60.80;;;;;;6219755;23;20499;-69
2023/04/21 13:07:43;;;;;;;0.75;0.75;;;18.40;59.60;;;;;;6221054;23;20172;-68
2023/04/21 13:10:11;;;;;;;0.70;0.70;;;18.70;55.80;;;;;;6221486;23;20173;-68
2023/04/21 13:12:38;;;;;;;0.70;0.70;;;18.80;53.40;;;;;;6220757;23;20196;-67
2023/04/21 13:15:06;;;;;;;0.50;0.50;;;19.10;53.00;;;;;;6220425;23;20199;-68
2023/04/21 13:17:33;;;;;;;0.30;0.30;;;19.10;48.00;;;;;;6221759;23;20180;-67
2023/04/21 13:20:00;;;;;;;0.40;0.40;;;19.20;47.50;;;;;;6222545;23;20180;-67
2023/04/21 13:22:27;;;;;;;0.63;0.63;;;19.30;45.80;;;;;;6222601;23;20197;-68
2023/04/21 13:24:58;;;;;;;0.45;0.45;;;19.20;44.70;;;;;;6223307;23;20179;-68
2023/04/21 13:27:25;;;;;;;0.55;0.40;;;19.20;46.00;;;;;;6222670;23;20185;-68
2023/04/21 13:29:53;;;;;;;0.40;0.40;;;19.20;45.20;;;;;;6218419;23;20169;-67
2023/04/21 13:32:20;;;;;;;0.30;0.30;;;19.20;44.20;;;;;;6222556;23;20203;-67
2023/04/21 13:34:47;;;;;;;0.30;0.30;;;19.20;44.00;;;;;;6222658;23;20177;-68
2023/04/21 13:37:15;;;;;;;0.40;0.40;;;19.10;43.70;;;;;;6223031;23;20255;-68
2023/04/21 13:39:43;;;;;;;0.35;0.35;;;19.10;44.40;;;;;;6222686;23;20259;-67
2023/04/21 13:42:11;;;;;;;0.30;0.30;;;19.10;45.30;;;;;;6222770;23;20572;-67
2023/04/21 13:44:39;;;;;;;0.40;0.40;;;19.10;45.20;;;;;;6222151;23;20172;-68
2023/04/21 13:47:08;;;;;;;0.47;0.43;;;19.10;46.20;;;;;;6223152;23;20193;-68
2023/04/21 13:49:35;;;;;;;0.40;0.40;;;18.80;47.00;;;;;;6223198;23;20176;-68
2023/04/21 13:52:02;;;;;;;0.50;0.50;;;18.70;48.40;;;;;;6222939;23;20192;-68
2023/04/21 13:54:29;;;;;;;0.57;0.57;;;18.60;53.20;;;;;;6222287;23;20176;-68
2023/04/21 13:56:56;;;;;;;2.80;0.85;;;18.70;53.90;;;;;;6221905;23;20255;-68
2023/04/21 13:59:25;;;;;;;1.20;0.88;;;18.60;55.20;;;;;;6222813;23;20207;-68
2023/04/21 14:01:52;;;;;;;1.10;1.10;;;18.50;56.00;;;;;;6222981;23;20681;-68
2023/04/21 14:04:20;;;;;;;1.20;0.90;;;18.40;56.70;;;;;;6222942;23;20251;-68
2023/04/21 14:06:48;;;;;;;0.80;0.80;;;18.40;58.60;;;;;;6222079;23;20223;-68
2023/04/21 14:09:15;;;;;;;0.90;0.90;;;18.20;57.60;;;;;;6223064;23;20668;-67
2023/04/21 14:11:42;;;;;;;1.42;1.10;;;18.10;58.40;;;;;;6221492;23;20223;-68
2023/04/21 14:14:09;;;;;;;0.90;0.90;;;18.00;59.40;;;;;;6222408;23;20199;-68
2023/04/21 14:16:38;;;;;;;0.70;0.70;;;18.00;60.40;;;;;;6221560;23;20172;-68
2023/04/21 14:19:06;;;;;;;1.05;0.93;;;18.00;61.60;;;;;;6222477;23;20172;-68
2023/04/21 14:21:33;;;;;;;0.77;0.77;;;18.10;61.00;;;;;;6222450;23;20196;-67
2023/04/21 14:24:00;;;;;;;0.80;0.80;;;18.10;61.00;;;;;;6223060;23;20513;-68
2023/04/21 14:26:27;;;;;;;0.93;0.93;;;17.90;60.10;;;;;;6221542;23;20219;-67
2023/04/21 14:28:54;;;;;;;0.70;0.70;;;17.90;60.70;;;;;;6216664;23;20180;-68
2023/04/21 14:31:20;;;;;;;0.80;0.80;;;17.80;62.80;;;;;;6216544;23;20283;-67
2023/04/21 14:33:48;;;;;;;0.68;0.68;;;17.70;59.30;;;;;;6216663;23;20176;-67
2023/04/21 14:36:15;;;;;;;0.60;0.60;;;17.60;61.00;;;;;;6216662;23;20180;-67
2023/04/21 14:38:42;;;;;;;0.43;0.43;;;17.50;63.40;;;;;;6216590;23;20180;-67
2023/04/21 14:41:09;;;;;;;0.60;0.60;;;17.70;66.60;;;;;;6216581;23;20234;-67
2023/04/21 14:43:36;;;;;;;0.55;0.55;;;17.80;66.80;;;;;;6216634;23;20183;-67
2023/04/21 14:46:03;;;;;;;0.50;0.50;;;17.90;64.20;;;;;;6216201;23;20172;-67
2023/04/21 14:48:30;;;;;;;0.50;0.50;;;18.10;61.20;;;;;;6216465;23;20172;-67
2023/04/21 14:50:58;;;;;;;0.60;0.60;;;18.20;59.40;;;;;;6217011;23;20176;-67
2023/04/21 14:53:25;;;;;;;0.50;0.50;;;18.10;59.20;;;;;;6216478;23;20183;-66
2023/04/21 14:55:52;;;;;;;0.60;0.60;;;18.10;59.80;;;;;;6216929;23;20190;-66
2023/04/21 14:58:19;;;;;;;0.70;0.70;;;17.90;60.70;;;;;;6217063;23;20176;-66
2023/04/21 15:00:45;;;;;;;0.80;0.80;;;17.60;63.20;;;;;;6216374;23;20230;-66
2023/04/21 15:03:12;;;;;;;0.88;0.88;;;17.30;62.80;;;;;;6216361;23;20251;-66
2023/04/21 15:05:39;;;;;;;0.75;0.75;;;17.10;64.70;;;;;;6215960;23;20498;-67
2023/04/21 15:08:08;;;;;;;0.90;0.90;;;16.80;65.70;;;;;;6216089;23;20195;-66
2023/04/21 15:10:35;;;;;;;0.82;0.82;;;16.50;69.20;;;;;;6216282;23;20173;-67
2023/04/21 15:13:02;;;;;;;1.65;1.55;;;16.20;70.80;;;;;;6216949;23;20665;-67
2023/04/21 15:15:29;;;;;;;0.75;0.75;;;15.90;74.90;;;;;;6216348;23;20176;-67
2023/04/21 15:17:55;;;;;;;0.80;0.80;;;15.60;84.60;;;;;;6216358;23;20172;-67
2023/04/21 15:20:22;;;;;;;0.80;0.80;;;15.50;90.80;;;;;;6215862;23;20187;-66
2023/04/21 15:22:49;;;;;;;0.65;0.65;;;15.60;90.10;;;;;;6216164;23;20250;-66
2023/04/21 15:25:17;;;;;;;0.70;0.70;;;15.70;89.50;;;;;;6216225;23;20172;-67
2023/04/21 15:27:44;;;;;;;0.50;0.50;;;15.80;86.60;;;;;;6216115;23;20184;-67
2023/04/21 15:30:12;;;;;;;0.50;0.50;;;15.90;82.20;;;;;;6216251;23;20172;-67
2023/04/21 15:32:39;;;;;;;0.57;0.57;;;15.70;77.80;;;;;;6216086;23;20215;-67
2023/04/21 15:35:06;;;;;;;0.55;0.55;;;15.60;81.70;;;;;;6216333;23;20264;-66
2023/04/21 15:37:33;;;;;;;0.80;0.80;;;15.60;83.70;;;;;;6216082;23;20161;-66
2023/04/21 15:40:00;;;;;;;0.70;0.70;;;15.50;83.60;;;;;;6215864;23;20661;-66
2023/04/21 15:42:28;;;;;;;0.73;0.73;;;15.50;89.10;;;;;;6216039;23;20199;-66
2023/04/21 15:44:56;;;;;;;0.70;0.70;;;15.50;84.60;;;;;;6215874;23;20598;-67
2023/04/21 15:47:22;;;;;;;0.75;0.75;;;15.60;88.20;;;;;;6215916;23;20196;-67
2023/04/21 15:49:49;;;;;;;0.50;0.50;;;15.60;85.60;;;;;;6216153;23;20165;-66
2023/04/21 15:52:16;;;;;;;0.75;0.60;;;15.70;85.70;;;;;;6215879;23;20197;-67
2023/04/21 15:54:46;;;;;;;0.40;0.40;;;15.80;81.60;;;;;;6216298;23;20192;-67
2023/04/21 15:57:12;;;;;;;0.60;0.60;;;15.80;79.20;;;;;;6217086;23;20180;-68
2023/04/21 15:59:41;;;;;;;0.50;0.50;;;15.80;76.80;;;;;;6218568;23;20172;-68
2023/04/21 16:02:08;;;;;;;0.38;0.38;;;15.80;77.60;;;;;;6217655;23;20204;-67
2023/04/21 16:04:34;;;;;;;0.50;0.50;;;15.70;78.10;;;;;;6217437;23;20183;-67
2023/04/21 16:07:01;;;;;;;0.40;0.40;;;15.70;78.30;;;;;;6217855;23;20562;-66
2023/04/21 16:09:28;;;;;;;0.57;0.57;;;15.60;75.00;;;;;;6217894;23;20173;-65
2023/04/21 16:11:55;;;;;;;0.40;0.40;;;15.50;71.40;;;;;;6217727;23;20196;-66
2023/04/21 16:14:22;;;;;;;0.52;0.50;;;15.40;70.60;;;;;;6217675;23;20487;-66
2023/04/21 16:16:50;;;;;;;0.60;0.60;;;15.40;68.80;;;;;;6217607;23;20537;-67
2023/04/21 16:19:17;;;;;;;0.50;0.50;;;15.40;63.00;;;;;;6217953;23;20196;-67
2023/04/21 16:21:43;;;;;;;1.42;0.50;;;15.40;61.90;;;;;;6217315;23;20522;-66
2023/04/21 16:24:10;;;;;;;0.50;0.50;;;15.50;59.70;;;;;;6217985;23;20169;-66
2023/04/21 16:26:37;;;;;;;1.55;0.45;;;15.60;58.90;;;;;;6217311;23;20196;-67
2023/04/21 16:29:04;;;;;;;0.50;0.50;;;15.70;57.60;;;;;;6217775;23;20157;-66
2023/04/21 16:31:31;;;;;;;0.40;0.40;;;15.80;56.90;;;;;;6217318;23;20573;-66
2023/04/21 16:33:59;;;;;;;0.50;0.50;;;15.70;53.80;;;;;;6217420;23;20161;-66
2023/04/21 16:36:28;;;;;;;0.38;0.38;;;15.70;52.50;;;;;;6217670;23;20184;-67
2023/04/21 16:38:55;;;;;;;0.50;0.50;;;15.60;53.60;;;;;;6217183;23;20652;-66
2023/04/21 16:41:22;;;;;;;0.60;0.60;;;15.60;54.80;;;;;;6217635;23;20204;-66
2023/04/21 16:43:49;;;;;;;0.40;0.40;;;15.50;54.90;;;;;;6217253;23;20626;-66
2023/04/21 16:46:15;;;;;;;0.60;0.60;;;15.40;56.20;;;;;;6217774;23;20165;-67
2023/04/21 16:48:42;;;;;;;0.50;0.50;;;15.30;56.10;;;;;;6217518;23;20196;-66
2023/04/21 16:51:11;;;;;;;0.50;0.50;;;15.20;55.50;;;;;;6217580;23;20280;-67
2023/04/21 16:53:38;;;;;;;0.63;0.63;;;15.10;56.80;;;;;;6217812;23;20190;-66
2023/04/21 16:56:05;;;;;;;1.27;0.63;;;15.00;58.50;;;;;;6218262;23;20156;-67
2023/04/21 16:58:32;;;;;;;0.57;0.57;;;14.90;61.40;;;;;;6217547;23;20153;-66
2023/04/21 17:00:58;;;;;;;0.50;0.50;;;14.90;64.60;;;;;;6217343;23;20511;-67
2023/04/21 17:03:26;;;;;;;0.50;0.50;;;14.80;66.50;;;;;;6216927;23;20183;-67
2023/04/21 17:05:53;;;;;;;0.50;0.50;;;14.70;67.20;;;;;;6217427;23;20239;-67
2023/04/21 17:08:21;;;;;;;0.50;0.50;;;14.70;69.10;;;;;;6217055;23;20193;-67
2023/04/21 17:10:47;;;;;;;0.57;0.57;;;14.60;70.30;;;;;;6217616;22;20200;-69
2023/04/21 17:13:14;;;;;;;0.50;0.50;;;14.40;73.60;;;;;;6217388;23;20532;-69
2023/04/21 17:15:41;;;;;;;0.35;0.35;;;14.30;78.60;;;;;;6217425;23;20173;-69
2023/04/21 17:18:07;;;;;;;0.70;0.70;;;14.10;82.00;;;;;;6217779;23;20173;-68
2023/04/21 17:20:35;;;;;;;0.63;0.60;;;14.00;84.60;;;;;;6217785;23;20204;-70
2023/04/21 17:23:02;;;;;;;0.98;0.57;;;13.90;89.40;;;;;;6217822;23;20169;-70
2023/04/21 17:25:30;;;;;;;0.50;0.50;;;13.70;92.10;;;;;;6217204;23;20504;-70
2023/04/21 17:27:58;;;;;;;0.70;0.70;;;13.60;95.30;;;;;;6217167;23;20525;-70
2023/04/21 17:30:24;;;;;;;0.60;0.60;;;13.50;98.50;;;;;;6217145;23;20199;-69
2023/04/21 17:32:51;;;;;;;0.57;0.57;;;13.40;99.90;;;;;;6217436;23;20499;-70
2023/04/21 17:35:18;;;;;;;0.73;0.50;;;13.30;99.90;;;;;;6222792;23;20177;-69
2023/04/21 17:37:45;;;;;;;0.60;0.60;;;13.20;99.90;;;;;;6225739;23;20169;-69
2023/04/21 17:40:12;;;;;;;0.50;0.50;;;13.10;99.90;;;;;;6221527;23;20673;-71
2023/04/21 17:42:40;;;;;;;0.85;0.85;;;13.00;99.90;;;;;;6217859;23;20656;-68
2023/04/21 17:45:08;;;;;;;0.90;0.90;;;12.90;99.90;;;;;;6217452;23;20176;-68
2023/04/21 17:47:35;;;;;;;0.60;0.60;;;12.80;99.90;;;;;;6216853;23;20276;-68
2023/04/21 17:50:01;;;;;;;0.73;0.73;;;12.70;99.90;;;;;;6216978;23;20193;-67
2023/04/21 17:52:29;;;;;;;0.82;0.82;;;12.60;99.90;;;;;;6216932;23;20177;-67
2023/04/21 17:54:55;;;;;;;0.70;0.70;;;12.50;99.90;;;;;;6216943;23;20185;-66
2023/04/21 17:57:23;;;;;;;0.90;0.90;;;12.40;99.90;;;;;;6216955;23;20179;-66
2023/04/21 17:59:51;;;;;;;1.33;1.33;;;12.30;99.90;;;;;;6216937;23;20200;-67
2023/04/21 18:02:18;;;;;;;1.50;1.50;;;12.20;99.90;;;;;;6216736;23;20176;-68
2023/04/21 18:04:44;;;;;;;1.13;1.13;;;12.00;99.90;;;;;;6216314;23;20204;-68
2023/04/21 18:07:11;;;;;;;1.50;1.40;;;11.90;99.90;;;;;;6216344;23;20192;-68
2023/04/21 18:09:38;;;;;;;1.75;1.65;;;11.70;99.90;;;;;;6216418;23;20638;-68
2023/04/21 18:12:05;;;;;;;1.90;1.80;;;11.60;99.90;;;;;;6216623;23;20165;-68
2023/04/21 18:14:32;;;;;;;1.58;1.52;;;11.50;99.90;;;;;;6216602;23;20172;-68
2023/04/21 18:17:00;;;;;;;1.67;1.40;;;11.50;99.90;;;;;;6216472;23;20207;-67
2023/04/21 18:19:27;;;;;;;1.13;1.13;;;11.40;99.90;;;;;;6215969;23;20511;-69
2023/04/21 18:21:54;;;;;;;1.20;1.20;;;11.30;99.90;;;;;;6216151;23;20556;-68
2023/04/21 18:24:21;;;;;;;1.02;1.02;;;11.10;99.90;;;;;;6216721;23;20176;-69
2023/04/21 18:26:49;;;;;;;0.80;0.80;;;11.00;99.90;;;;;;6216479;23;20181;-67
2023/04/21 18:29:18;;;;;;;0.88;0.88;;;10.90;99.90;;;;;;6217267;23;20200;-67
2023/04/21 18:31:45;;;;;;;1.10;1.10;;;10.90;99.90;;;;;;6216186;23;20201;-67
2023/04/21 18:34:13;;;;;;;0.70;0.70;;;10.80;99.90;;;;;;6215888;23;20688;-67
2023/04/21 18:36:41;;;;;;;0.93;0.93;;;10.70;99.90;;;;;;6216460;23;20180;-67
2023/04/21 18:39:09;;;;;;;0.90;0.90;;;10.60;99.90;;;;;;6217957;23;20168;-67
2023/04/21 18:41:35;;;;;;;0.98;0.98;;;10.50;99.90;;;;;;6216129;23;20203;-67
2023/04/21 18:44:04;;;;;;;0.80;0.80;;;10.50;99.90;;;;;;6216219;23;20184;-67
2023/04/21 18:46:31;;;;;;;0.95;0.95;;;10.40;99.90;;;;;;6216419;23;20502;-68
2023/04/21 18:48:57;;;;;;;0.85;0.85;;;10.30;99.90;;;;;;6216590;23;20197;-67
2023/04/21 18:51:29;;;;;;;0.90;0.90;;;10.30;99.90;;;;;;6216472;23;20208;-67
2023/04/21 18:53:56;;;;;;;0.88;0.88;;;10.20;99.90;;;;;;6216762;23;20157;-68
2023/04/21 18:56:23;;;;;;;0.82;0.80;;;10.20;99.90;;;;;;6216486;23;20173;-67
2023/04/21 18:58:50;;;;;;;0.88;0.88;;;10.10;99.90;;;;;;6215982;23;20508;-67
2023/04/21 19:01:17;;;;;;;0.80;0.80;;;10.10;99.90;;;;;;6216369;23;20193;-68
2023/04/21 19:03:44;;;;;;;0.90;0.90;;;10.10;99.90;;;;;;6216288;23;20177;-69
2023/04/21 19:06:11;;;;;;;0.80;0.80;;;10.00;99.90;;;;;;6216187;23;20218;-68
2023/04/21 19:08:39;;;;;;;0.80;0.80;;;10.00;99.90;;;;;;6215885;23;20188;-67
2023/04/21 19:11:06;;;;;;;0.82;0.82;;;10.00;99.90;;;;;;6215830;23;20539;-67
2023/04/21 19:13:32;;;;;;;0.70;0.70;;;9.90;99.90;;;;;;6216553;23;20196;-67
2023/04/21 19:16:00;;;;;;;0.75;0.75;;;9.90;99.90;;;;;;6216056;23;20230;-68
2023/04/21 19:18:26;;;;;;;0.85;0.85;;;9.90;99.90;;;;;;6216085;23;20173;-68
2023/04/21 19:20:53;;;;;;;1.65;0.80;;;9.80;99.90;;;;;;6215508;23;20563;-68
2023/04/21 19:23:20;;;;;;;0.80;0.80;;;9.80;99.90;;;;;;6215730;23;20177;-68
2023/04/21 19:25:53;;;;;;;0.73;0.73;;;9.80;99.90;;;;;;6215539;23;20634;-68
2023/04/21 19:28:20;;;;;;;1.02;1.02;;;9.70;99.90;;;;;;6215450;23;20645;-69
2023/04/21 19:30:47;;;;;;;2.65;0.90;;;9.70;99.90;;;;;;6215902;23;20193;-68
2023/04/21 19:33:14;;;;;;;1.10;1.10;;;9.70;99.90;;;;;;6218416;23;20176;-68
2023/04/21 19:35:41;;;;;;;1.00;1.00;;;9.60;99.90;;;;;;6219510;23;20176;-68
2023/04/21 19:38:08;;;;;;;0.80;0.80;;;9.60;99.90;;;;;;6219424;23;20252;-68
2023/04/21 19:40:35;;;;;;;1.00;1.00;;;9.60;99.90;;;;;;6219495;23;20201;-68
2023/04/21 19:43:04;;;;;;;1.15;1.15;;;9.50;99.90;;;;;;6219196;23;20176;-68
2023/04/21 19:45:30;;;;;;;1.00;1.00;;;9.50;99.90;;;;;;6219570;23;20255;-69
2023/04/21 19:47:57;;;;;;;1.23;1.23;;;9.50;99.90;;;;;;6218932;23;20197;-68
2023/04/21 19:50:24;;;;;;;1.05;1.05;;;9.40;99.90;;;;;;6219454;23;20196;-68
2023/04/21 19:52:50;;;;;;;1.08;1.08;;;9.40;99.90;;;;;;6219298;23;20180;-68
2023/04/21 19:55:17;;;;;;;1.30;1.30;;;9.40;99.90;;;;;;6219465;23;20182;-68
2023/04/21 19:57:44;;;;;;;1.02;1.02;;;9.40;99.90;;;;;;6219322;23;20629;-68
2023/04/21 20:00:14;;;;;;;1.20;1.20;;;9.40;99.90;;;;;;6218836;23;20678;-68
2023/04/21 20:02:41;;;;;;;1.08;1.08;;;9.30;99.90;;;;;;6219185;23;20173;-68
2023/04/21 20:05:09;;;;;;;1.25;1.25;;;9.30;99.90;;;;;;6219029;23;20180;-68
2023/04/21 20:07:36;;;;;;;0.98;0.98;;;9.30;99.90;;;;;;6219151;23;20184;-68
2023/04/21 20:10:03;;;;;;;1.20;1.20;;;9.30;99.90;;;;;;6219160;23;20207;-69
2023/04/21 20:12:30;;;;;;;0.80;0.80;;;9.20;99.90;;;;;;6219036;23;20532;-69
2023/04/21 20:14:57;;;;;;;1.00;1.00;;;9.20;99.90;;;;;;6219559;23;20180;-68
2023/04/21 20:17:25;;;;;;;0.73;0.73;;;9.20;99.90;;;;;;6219076;23;20184;-68
2023/04/21 20:19:52;;;;;;;0.70;0.70;;;9.20;99.90;;;;;;6219101;23;20662;-68
2023/04/21 20:22:19;;;;;;;1.10;1.10;;;9.10;99.90;;;;;;6219617;23;20176;-69
2023/04/21 20:24:46;;;;;;;0.90;0.90;;;9.10;99.90;;;;;;6219408;23;20179;-68
2023/04/21 20:27:13;;;;;;;1.35;1.25;;;9.10;99.90;;;;;;6219230;23;20200;-68
2023/04/21 20:29:41;;;;;;;1.00;1.00;;;9.10;99.90;;;;;;6219256;23;20193;-68
2023/04/21 20:32:09;;;;;;;1.27;1.15;;;9.10;99.90;;;;;;6219387;23;20176;-68
2023/04/21 20:34:37;;;;;;;1.20;1.20;;;9.00;99.90;;;;;;6219218;23;20176;-69
2023/04/21 20:37:04;;;;;;;1.00;1.00;;;9.10;99.90;;;;;;6219100;23;20252;-68
2023/04/21 20:39:31;;;;;;;1.17;1.17;;;9.00;99.90;;;;;;6218659;23;20626;-69
2023/04/21 20:41:59;;;;;;;1.10;1.10;;;9.00;99.90;;;;;;6218896;23;20181;-70
2023/04/21 20:44:30;;;;;;;1.20;1.20;;;9.00;99.90;;;;;;6217724;23;20668;-70
2023/04/21 20:46:57;;;;;;;0.93;0.93;;;9.00;99.90;;;;;;6218010;23;20161;-70
2023/04/21 20:49:24;;;;;;;1.25;1.25;;;8.90;99.90;;;;;;6217863;23;20197;-70
2023/04/21 20:51:57;;;;;;;1.10;1.10;;;9.00;99.90;;;;;;6218016;23;20514;-70
2023/04/21 20:54:24;;;;;;;1.20;1.20;;;9.00;99.90;;;;;;6217696;23;20517;-71
2023/04/21 20:56:51;;;;;;;1.40;1.40;;;8.90;99.90;;;;;;6217693;23;20183;-71
2023/04/21 20:59:18;;;;;;;1.70;1.30;;;9.00;99.90;;;;;;6217283;23;20549;-74
2023/04/21 21:01:44;;;;;;;2.15;1.40;;;8.90;99.90;;;;;;6217902;23;20200;-71
2023/04/21 21:04:12;;;;;;;1.23;1.23;;;8.90;99.90;;;;;;6218040;23;20187;-70
2023/04/21 21:06:38;;;;;;;1.48;1.48;;;8.90;99.90;;;;;;6217600;23;20533;-70
2023/04/21 21:09:08;;;;;;;1.50;1.50;;;8.90;99.90;;;;;;6219290;23;20192;-71
2023/04/21 21:11:35;;;;;;;1.73;1.63;;;8.90;99.90;;;;;;6225938;23;20232;-71
2023/04/21 21:14:02;;;;;;;1.52;1.50;;;8.80;99.90;;;;;;6225598;23;20634;-70
2023/04/21 21:16:29;;;;;;;2.00;1.83;;;8.80;99.90;;;;;;6226528;23;20183;-70
2023/04/21 21:18:56;;;;;;;1.25;1.25;;;8.80;99.90;;;;;;6219986;23;20180;-70
2023/04/21 21:21:23;;;;;;;1.67;1.67;;;8.80;99.90;;;;;;6217889;23;20197;-71
2023/04/21 21:23:50;;;;;;;1.85;1.42;;;8.80;99.90;;;;;;6217187;23;20176;-71
2023/04/21 21:26:18;;;;;;;1.70;1.70;;;8.70;99.90;;;;;;6217671;23;20554;-71
2023/04/21 21:28:44;;;;;;;1.50;1.50;;;8.70;99.90;;;;;;6217210;23;20196;-70
2023/04/21 21:31:11;;;;;;;1.65;1.55;;;8.70;99.90;;;;;;6217254;23;20219;-71
2023/04/21 21:33:38;;;;;;;1.55;1.45;;;8.60;99.90;;;;;;6217395;23;20180;-70
2023/04/21 21:36:05;;;;;;;1.73;1.63;;;8.60;99.90;;;;;;6217203;23;20184;-70
2023/04/21 21:38:32;;;;;;;1.38;1.38;;;8.60;99.90;;;;;;6217404;23;20172;-71
2023/04/21 21:40:59;;;;;;;2.53;1.40;;;8.60;99.90;;;;;;6217062;23;20193;-71
2023/04/21 21:43:27;;;;;;;1.50;1.50;;;8.60;99.90;;;;;;6216881;23;20696;-71
2023/04/21 21:45:54;;;;;;;1.30;1.30;;;8.60;99.90;;;;;;6217564;23;20219;-71
2023/04/21 21:48:21;;;;;;;1.85;1.50;;;8.60;99.90;;;;;;6217226;23;20280;-70
2023/04/21 21:50:47;;;;;;;1.42;1.42;;;8.60;99.90;;;;;;6217188;23;20204;-70
2023/04/21 21:53:14;;;;;;;1.65;1.63;;;8.50;99.90;;;;;;6216975;23;20630;-69
2023/04/21 21:55:41;;;;;;;1.70;1.60;;;8.50;99.90;;;;;;6217716;23;20177;-69
2023/04/21 21:58:07;;;;;;;1.33;1.33;;;8.40;99.90;;;;;;6217343;23;20177;-69
2023/04/21 22:00:35;;;;;;;1.42;1.42;;;8.40;99.90;;;;;;6217003;23;20216;-69
2023/04/21 22:03:03;;;;;;;1.63;1.63;;;8.40;99.90;;;;;;6216872;23;20172;-69
2023/04/21 22:05:30;;;;;;;2.00;1.90;;;8.30;99.90;;;;;;6216811;23;20173;-69
2023/04/21 22:07:57;;;;;;;1.73;1.63;;;8.30;99.90;;;;;;6216383;23;20177;-69
2023/04/21 22:10:23;;;;;;;1.75;1.75;;;8.20;99.90;;;;;;6216270;23;20197;-69
2023/04/21 22:12:52;;;;;;;1.75;1.67;;;8.20;99.90;;;;;;6216329;23;20517;-69
2023/04/21 22:15:19;;;;;;;2.30;2.20;;;8.20;99.90;;;;;;6216647;23;20184;-69
2023/04/21 22:17:47;;;;;;;1.70;1.60;;;8.20;99.90;;;;;;6216644;23;20181;-69
2023/04/21 22:20:14;;;;;;;1.80;1.70;;;8.20;99.90;;;;;;6216328;23;20193;-69
2023/04/21 22:22:41;;;;;;;2.63;1.75;;;8.10;99.90;;;;;;6216564;23;20212;-69
2023/04/21 22:25:09;;;;;;;1.90;1.80;;;8.10;99.90;;;;;;6216396;23;20491;-69